Terminal Aerodrome Forecast
Issued by NWS North Platte, NE

Home | Current Version | Previous Version | Text Only | Print | Product List | Glossary On
Versions: 1 2 3 4 5 6 7 8 9 10 11 12 13 14 15 16 17 18 19 20 21 22 23 24 25 26 27 28 29
798
FTUS43 KLBF 122320
TAFVTN
TAF
KVTN 122320Z 1300/1324 07009KT P6SM OVC040
     FM130300 09010KT P6SM OVC025
     FM130500 11012KT 6SM -FZDZSN OVC008
     FM131700 18015G23KT P6SM OVC012
     FM131900 18015G24KT P6SM OVC020=

USA.gov is the U.S. government's official web portal to all federal, state and local government web resources and services.